Time;durP1;ratioP1;P1;durP2;ratioP2;P2;SDS_P1;SDS_P2;PMS_P1;PMS_P2;Temp;Humidity;BMP_temperature;BMP_pressure;BME280_temperature;BME280_humidity;BME280_pressure;Samples;Min_cycle;Max_cycle;Signal;HPM_P1;HPM_P2
2021/09/28 00:03:20;;;;;;;216.13;200.40;;;14.70;1.00;;;;;;5036452;28;20410;-83
2021/09/28 00:06:23;;;;;;;233.80;218.03;;;14.70;1.00;;;;;;5037163;28;20783;-83
2021/09/28 00:09:15;;;;;;;244.77;228.60;;;14.70;1.00;;;;;;4936719;29;20423;-83
2021/09/28 00:11:49;;;;;;;244.63;227.80;;;14.70;1.00;;;;;;4937787;29;20409;-83
2021/09/28 00:14:27;;;;;;;253.40;236.10;;;14.70;1.00;;;;;;4936651;29;20417;-83
2021/09/28 00:17:14;;;;;;;222.00;205.77;;;14.60;1.00;;;;;;4983372;28;20436;-83
2021/09/28 00:19:40;;;;;;;246.07;230.00;;;14.60;1.00;;;;;;5018131;28;20534;-83
2021/09/28 00:22:11;;;;;;;239.10;223.37;;;14.60;1.00;;;;;;5035962;28;20436;-83
2021/09/28 00:24:42;;;;;;;261.73;244.93;;;14.60;1.00;;;;;;5036036;28;20412;-83
2021/09/28 00:27:18;;;;;;;;;;;;;;;;;;;;;
2021/09/28 00:29:49;;;;;;;215.50;200.30;;;14.60;1.00;;;;;;5036244;28;20460;-83
2021/09/28 00:32:15;;;;;;;269.83;252.63;;;14.60;1.00;;;;;;5035550;28;20423;-83
2021/09/28 00:34:45;;;;;;;223.43;207.83;;;14.60;1.00;;;;;;5035817;28;20408;-83
2021/09/28 00:37:11;;;;;;;273.77;256.23;;;14.60;1.00;;;;;;5017999;28;20428;-83
2021/09/28 00:39:46;;;;;;;269.83;252.77;;;14.50;1.00;;;;;;5035186;28;20479;-83
2021/09/28 00:42:12;;;;;;;271.60;254.33;;;14.50;1.00;;;;;;5036028;28;20388;-83
2021/09/28 00:44:40;;;;;;;262.10;245.13;;;14.40;1.00;;;;;;5017900;28;20469;-83
2021/09/28 00:47:10;;;;;;;253.73;237.30;;;14.40;1.00;;;;;;5017796;28;20213;-83
2021/09/28 00:49:44;;;;;;;240.93;224.37;;;14.30;1.00;;;;;;5035807;28;20457;-83
2021/09/28 00:52:27;;;;;;;263.33;246.60;;;14.30;1.00;;;;;;5017769;28;20400;-82
2021/09/28 00:55:09;;;;;;;276.70;259.40;;;14.30;1.00;;;;;;5113989;23;20485;-82
2021/09/28 00:57:42;;;;;;;288.07;270.57;;;14.30;1.00;;;;;;5059565;28;20419;-83
2021/09/28 01:00:09;;;;;;;301.17;283.33;;;14.30;1.00;;;;;;5059742;28;20476;-83
2021/09/28 01:02:39;;;;;;;263.87;247.20;;;14.30;1.00;;;;;;5041991;28;20407;-83
2021/09/28 01:05:51;;;;;;;274.50;257.17;;;14.30;1.00;;;;;;5042461;28;20407;-82
2021/09/28 01:08:28;;;;;;;307.77;289.47;;;14.30;1.00;;;;;;5041156;28;20467;-82
2021/09/28 01:11:01;;;;;;;284.47;267.10;;;14.30;1.00;;;;;;5041979;28;20439;-83
2021/09/28 01:13:27;;;;;;;269.57;252.27;;;14.20;1.00;;;;;;5042148;28;20410;-83
2021/09/28 01:15:58;;;;;;;342.23;322.57;;;14.10;1.00;;;;;;5059497;28;20402;-83
2021/09/28 01:18:28;;;;;;;315.33;296.07;;;14.10;1.00;;;;;;5059169;28;20418;-83
2021/09/28 01:20:54;;;;;;;303.50;284.97;;;14.10;1.00;;;;;;5059525;28;20481;-83
2021/09/28 01:23:23;;;;;;;294.70;277.17;;;14.10;1.00;;;;;;5059349;28;20434;-83
2021/09/28 01:25:49;;;;;;;305.90;288.03;;;14.10;1.00;;;;;;5059420;28;20540;-83
2021/09/28 01:28:20;;;;;;;300.17;281.97;;;14.10;1.00;;;;;;5058711;28;20415;-83
2021/09/28 01:30:51;;;;;;;262.40;245.60;;;14.10;1.00;;;;;;5059091;28;20427;-82
2021/09/28 01:33:24;;;;;;;311.00;292.60;;;14.00;1.00;;;;;;5041011;28;20429;-83
2021/09/28 01:35:53;;;;;;;291.37;273.77;;;14.00;1.00;;;;;;5059785;28;20474;-82
2021/09/28 01:38:19;;;;;;;282.70;265.33;;;14.00;1.00;;;;;;5040987;28;20446;-82
2021/09/28 01:40:48;;;;;;;304.20;286.13;;;14.00;1.00;;;;;;5058921;28;20500;-83
2021/09/28 01:43:19;;;;;;;295.80;278.03;;;13.90;1.00;;;;;;5041661;28;20929;-82
2021/09/28 01:46:05;;;;;;;277.60;260.37;;;13.90;1.00;;;;;;5059179;28;20380;-82
2021/09/28 01:48:47;;;;;;;288.13;270.47;;;13.90;1.00;;;;;;5058804;28;20430;-82
2021/09/28 01:51:17;;;;;;;263.70;246.93;;;13.90;1.00;;;;;;5058976;28;20973;-82
2021/09/28 01:53:43;;;;;;;247.10;230.90;;;13.80;1.00;;;;;;5040971;28;20826;-83
2021/09/28 01:56:21;;;;;;;297.57;279.37;;;13.90;1.00;;;;;;5058355;28;20453;-82
2021/09/28 01:58:47;;;;;;;282.87;265.43;;;13.80;1.00;;;;;;5059281;28;20387;-82
2021/09/28 02:01:13;;;;;;;275.30;257.83;;;13.80;1.00;;;;;;5058869;28;20450;-83
2021/09/28 02:03:39;;;;;;;279.60;262.20;;;13.80;1.00;;;;;;5059408;28;20755;-82
2021/09/28 02:06:04;;;;;;;277.50;260.40;;;13.80;1.00;;;;;;5059233;28;20163;-82
2021/09/28 02:08:30;;;;;;;259.10;241.63;;;13.80;1.00;;;;;;5058648;28;20419;-83
2021/09/28 02:10:56;;;;;;;209.70;193.87;;;13.70;1.00;;;;;;5058404;28;20256;-83
2021/09/28 02:13:22;;;;;;;264.83;246.57;;;13.70;1.00;;;;;;5058344;28;20535;-82
2021/09/28 02:15:47;;;;;;;238.63;222.37;;;13.70;1.00;;;;;;5058641;28;20168;-82
2021/09/28 02:18:13;;;;;;;216.47;200.73;;;13.70;1.00;;;;;;5058136;28;20185;-82
2021/09/28 02:20:48;;;;;;;263.87;246.60;;;13.70;1.00;;;;;;5040044;28;20207;-82
2021/09/28 02:23:16;;;;;;;225.60;209.73;;;13.70;1.00;;;;;;5058429;28;20163;-83
2021/09/28 02:25:41;;;;;;;275.00;257.33;;;13.70;1.00;;;;;;5058662;28;20403;-82
2021/09/28 02:28:07;;;;;;;209.37;194.37;;;13.70;1.00;;;;;;5040219;28;20435;-82
2021/09/28 02:30:33;;;;;;;207.17;191.43;;;13.70;1.00;;;;;;5057972;28;20176;-82
2021/09/28 02:33:16;;;;;;;209.87;194.47;;;13.60;1.00;;;;;;5058252;28;20171;-82
2021/09/28 02:35:43;;;;;;;203.60;188.70;;;13.60;1.00;;;;;;5040335;28;20411;-83
2021/09/28 02:38:10;;;;;;;209.53;193.80;;;13.60;1.00;;;;;;5039903;28;20435;-82
2021/09/28 02:40:37;;;;;;;190.90;176.03;;;13.60;1.00;;;;;;5058480;28;20451;-82
2021/09/28 02:43:06;;;;;;;199.53;184.30;;;13.60;1.00;;;;;;5039850;28;20410;-82
2021/09/28 02:45:32;;;;;;;207.80;192.47;;;13.60;1.00;;;;;;5057661;28;20408;-82
2021/09/28 02:48:07;;;;;;;196.67;181.87;;;13.60;1.00;;;;;;5058027;28;20856;-83
2021/09/28 02:50:34;;;;;;;191.93;176.63;;;13.60;1.00;;;;;;5058251;28;20168;-83
2021/09/28 02:53:01;;;;;;;181.97;167.70;;;13.60;1.00;;;;;;5039781;28;20782;-83
2021/09/28 02:55:28;;;;;;;183.47;168.77;;;13.60;1.00;;;;;;5040567;28;20451;-84
2021/09/28 02:57:56;;;;;;;185.80;171.43;;;13.60;1.00;;;;;;5040197;28;20446;-82
2021/09/28 03:00:22;;;;;;;203.27;188.30;;;13.60;1.00;;;;;;5057693;28;20451;-82
2021/09/28 03:02:48;;;;;;;186.10;171.83;;;13.60;1.00;;;;;;5057964;28;20406;-82
2021/09/28 03:05:24;;;;;;;197.43;182.70;;;13.60;1.00;;;;;;5057954;28;20411;-84
2021/09/28 03:07:50;;;;;;;210.13;194.63;;;13.50;1.00;;;;;;5057798;28;20897;-83
2021/09/28 03:10:19;;;;;;;234.90;218.80;;;13.50;1.00;;;;;;5057599;28;20403;-84
2021/09/28 03:12:47;;;;;;;182.90;168.67;;;13.50;1.00;;;;;;5057854;28;20165;-84
2021/09/28 03:15:16;;;;;;;196.03;181.23;;;13.50;1.00;;;;;;5039594;28;20422;-84
2021/09/28 03:17:42;;;;;;;193.50;178.70;;;13.50;1.00;;;;;;5038737;28;20457;-84
2021/09/28 03:20:09;;;;;;;199.33;184.13;;;13.40;1.00;;;;;;5057259;28;20545;-84
2021/09/28 03:22:41;;;;;;;202.43;187.30;;;13.40;1.00;;;;;;5038774;28;20422;-84
2021/09/28 03:25:07;;;;;;;202.70;187.90;;;13.40;1.00;;;;;;5056995;28;20461;-83
2021/09/28 03:27:40;;;;;;;201.33;186.47;;;13.40;1.00;;;;;;5057199;28;20932;-83
2021/09/28 03:30:06;;;;;;;192.50;178.03;;;13.40;1.00;;;;;;5057633;28;20446;-84
2021/09/28 03:32:47;;;;;;;192.50;178.10;;;13.40;1.00;;;;;;5056990;28;20834;-84
2021/09/28 03:35:20;;;;;;;184.53;169.93;;;13.40;1.00;;;;;;5057147;28;20387;-84
2021/09/28 03:37:54;;;;;;;187.23;172.07;;;13.30;1.00;;;;;;5056788;28;20509;-83
2021/09/28 03:40:29;;;;;;;190.07;175.43;;;13.30;1.00;;;;;;5057097;28;20439;-84
2021/09/28 03:43:01;;;;;;;199.13;184.23;;;13.30;1.00;;;;;;5057012;28;20876;-84
2021/09/28 03:45:35;;;;;;;204.37;189.27;;;13.30;1.00;;;;;;5056598;28;20851;-83
2021/09/28 03:48:09;;;;;;;213.75;198.00;;;13.30;1.00;;;;;;5039063;28;20430;-84
2021/09/28 03:50:58;;;;;;;191.20;176.50;;;13.20;1.00;;;;;;5038743;28;20259;-84
2021/09/28 03:53:29;;;;;;;180.27;165.47;;;13.20;1.00;;;;;;5038617;28;20402;-83
2021/09/28 03:56:00;;;;;;;194.63;179.37;;;13.20;1.00;;;;;;5056534;28;20433;-84
2021/09/28 03:58:31;;;;;;;168.03;154.13;;;13.20;1.00;;;;;;5056587;28;20422;-84
2021/09/28 04:01:15;;;;;;;199.97;185.17;;;13.20;1.00;;;;;;5038621;28;20474;-84
2021/09/28 04:03:48;;;;;;;189.67;174.40;;;13.10;1.00;;;;;;5038581;28;20395;-84
2021/09/28 04:06:16;;;;;;;198.93;183.53;;;13.10;1.00;;;;;;5038418;28;20611;-83
2021/09/28 04:08:45;;;;;;;199.13;184.37;;;13.10;1.00;;;;;;5056719;28;20426;-84
2021/09/28 04:11:11;;;;;;;180.70;166.60;;;13.10;1.00;;;;;;5057045;28;20399;-83
2021/09/28 04:13:41;;;;;;;185.80;171.30;;;13.10;1.00;;;;;;5057286;28;20403;-83
2021/09/28 04:16:20;;;;;;;203.10;187.93;;;13.10;1.00;;;;;;5056760;28;20382;-84
2021/09/28 04:18:46;;;;;;;222.47;205.97;;;13.00;1.00;;;;;;5055987;28;20826;-84
2021/09/28 04:21:23;;;;;;;195.70;180.93;;;13.00;1.00;;;;;;5056730;28;20485;-84
2021/09/28 04:23:54;;;;;;;181.67;167.53;;;13.00;1.00;;;;;;5038060;28;20203;-84
2021/09/28 04:26:38;;;;;;;184.90;169.60;;;13.00;1.00;;;;;;5038445;28;20413;-84
2021/09/28 04:29:06;;;;;;;186.93;172.27;;;13.00;1.00;;;;;;5056193;28;20403;-84
2021/09/28 04:31:42;;;;;;;172.40;158.07;;;13.00;1.00;;;;;;5056177;28;20391;-84
2021/09/28 04:34:21;;;;;;;191.97;176.57;;;13.00;1.00;;;;;;5056092;28;20418;-84
2021/09/28 04:36:47;;;;;;;198.13;183.33;;;12.90;1.00;;;;;;5055788;28;20433;-84
2021/09/28 04:39:18;;;;;;;183.93;169.07;;;12.90;1.00;;;;;;5038098;28;20487;-83
2021/09/28 04:41:52;;;;;;;205.30;189.10;;;12.90;1.00;;;;;;5038584;28;20165;-84
2021/09/28 04:44:21;;;;;;;178.67;164.17;;;12.80;1.00;;;;;;5056056;28;20376;-84
2021/09/28 04:47:12;;;;;;;196.47;180.77;;;12.80;1.00;;;;;;5056158;28;20453;-83
2021/09/28 04:49:40;;;;;;;194.87;179.83;;;12.80;1.00;;;;;;5038124;28;20415;-84
2021/09/28 04:52:06;;;;;;;183.65;169.32;;;12.80;1.00;;;;;;5056558;28;20399;-83
2021/09/28 04:54:40;;;;;;;184.43;170.10;;;12.80;1.00;;;;;;5055952;28;20169;-83
2021/09/28 04:57:06;;;;;;;211.97;195.63;;;12.80;1.00;;;;;;5038110;28;20431;-82
2021/09/28 04:59:43;;;;;;;196.97;181.33;;;12.70;1.00;;;;;;5038133;28;20881;-84
2021/09/28 05:02:11;;;;;;;196.60;181.60;;;12.70;1.00;;;;;;5056555;28;20390;-84
2021/09/28 05:05:07;;;;;;;178.00;163.60;;;12.70;1.00;;;;;;5056187;28;20395;-84
2021/09/28 05:07:39;;;;;;;183.52;169.05;;;12.70;1.00;;;;;;5055838;28;20418;-84
2021/09/28 05:10:14;;;;;;;197.43;182.60;;;12.70;1.00;;;;;;5037921;28;20165;-83
2021/09/28 05:12:42;;;;;;;181.67;167.43;;;12.60;1.00;;;;;;5037893;28;20167;-84
2021/09/28 05:15:17;;;;;;;225.20;208.27;;;12.60;1.00;;;;;;5037787;28;20411;-84
2021/09/28 05:17:55;;;;;;;245.88;227.43;;;12.60;1.00;;;;;;5056016;28;20414;-83
2021/09/28 05:20:23;;;;;;;173.97;160.10;;;12.60;1.00;;;;;;5055815;28;20186;-83
2021/09/28 05:22:57;;;;;;;194.25;179.02;;;12.60;8.50;;;;;;5055215;28;20409;-83
2021/09/28 05:25:23;;;;;;;341.03;317.47;;;12.50;56.70;;;;;;5055207;28;20140;-83
2021/09/28 05:27:51;;;;;;;399.90;374.03;;;12.50;94.10;;;;;;5055267;28;20426;-83
2021/09/28 05:30:22;;;;;;;402.00;377.02;;;12.60;99.90;;;;;;5055588;28;20471;-84
2021/09/28 05:32:48;;;;;;;391.40;367.17;;;12.60;99.90;;;;;;5055715;28;20311;-84
2021/09/28 05:35:28;;;;;;;407.50;381.63;;;12.60;99.90;;;;;;5037223;28;20936;-84
2021/09/28 05:37:56;;;;;;;298.23;277.50;;;12.60;99.90;;;;;;5055783;28;20430;-84
2021/09/28 05:40:25;;;;;;;390.08;365.25;;;12.60;99.90;;;;;;5058079;28;20450;-85
2021/09/28 05:42:51;;;;;;;379.58;355.02;;;12.60;99.90;;;;;;5059320;28;20192;-84
2021/09/28 05:45:19;;;;;;;371.50;348.60;;;12.60;99.90;;;;;;5060159;28;20169;-85
2021/09/28 05:47:47;;;;;;;354.45;331.35;;;12.60;99.90;;;;;;5059418;28;20834;-85
2021/09/28 05:50:13;;;;;;;335.55;313.50;;;12.60;99.90;;;;;;5059345;28;20160;-84
2021/09/28 05:52:39;;;;;;;286.50;266.27;;;12.60;99.90;;;;;;5059753;28;20175;-84
2021/09/28 05:55:14;;;;;;;265.37;246.10;;;12.60;95.80;;;;;;5041024;28;20431;-85
2021/09/28 05:57:52;;;;;;;291.40;270.95;;;12.60;95.20;;;;;;5059917;28;20423;-85
2021/09/28 06:00:40;;;;;;;273.70;254.38;;;12.60;92.00;;;;;;5059090;28;20197;-86
2021/09/28 06:03:41;;;;;;;270.17;250.95;;;12.60;86.10;;;;;;5058741;28;20169;-85
2021/09/28 06:06:27;;;;;;;223.75;207.18;;;12.60;88.00;;;;;;5058813;28;20148;-86
2021/09/28 06:09:32;;;;;;;248.83;231.10;;;12.60;81.00;;;;;;5040998;28;20172;-86
2021/09/28 06:12:31;;;;;;;243.13;225.00;;;12.60;76.70;;;;;;4988530;28;20477;-86
2021/09/28 06:15:47;;;;;;;203.60;187.55;;;12.60;70.50;;;;;;5037058;28;20175;-86
2021/09/28 06:18:36;;;;;;;181.37;166.87;;;12.60;59.40;;;;;;5038785;28;20672;-86
2021/09/28 06:21:22;;;;;;;314.80;293.37;;;12.50;82.80;;;;;;5057999;28;20502;-86
2021/09/28 06:24:36;;;;;;;;;;;;;;;;;;;;;
2021/09/28 06:27:04;;;;;;;398.50;373.23;;;12.50;99.90;;;;;;5057804;28;20184;-84
2021/09/28 06:29:30;;;;;;;358.88;336.45;;;12.50;99.90;;;;;;5056580;28;20413;-83
2021/09/28 06:31:56;;;;;;;362.13;339.50;;;12.60;99.90;;;;;;5057299;28;20173;-83
2021/09/28 06:34:30;;;;;;;416.33;390.50;;;12.60;99.90;;;;;;5056877;28;20191;-86
2021/09/28 06:36:58;;;;;;;443.17;416.20;;;12.60;99.90;;;;;;5039968;28;20438;-86
2021/09/28 06:39:37;;;;;;;509.23;479.00;;;12.60;99.90;;;;;;5039980;28;20534;-86
2021/09/28 06:42:03;;;;;;;511.33;480.63;;;12.60;1.00;;;;;;5040195;28;20403;-87
2021/09/28 06:44:29;;;;;;;562.80;531.13;;;12.60;2.40;;;;;;5040078;28;20217;-86
2021/09/28 06:47:00;;;;;;;539.60;508.37;;;12.60;75.70;;;;;;5039989;28;20431;-85
2021/09/28 06:49:51;;;;;;;551.17;520.33;;;12.70;1.00;;;;;;5057897;28;20384;-86
2021/09/28 06:52:20;;;;;;;516.33;486.93;;;12.70;99.90;;;;;;5058084;28;20164;-86
2021/09/28 06:54:49;;;;;;;505.93;477.73;;;12.80;1.00;;;;;;5103271;23;20533;-87
2021/09/28 06:57:15;;;;;;;514.07;484.93;;;12.80;99.90;;;;;;5041266;28;20412;-85
2021/09/28 06:59:40;;;;;;;507.77;478.67;;;12.80;99.90;;;;;;5041999;28;20497;-85
2021/09/28 07:02:06;;;;;;;496.13;468.63;;;12.90;1.00;;;;;;5041818;28;20200;-85
2021/09/28 07:04:32;;;;;;;494.00;466.23;;;12.90;1.00;;;;;;5023767;28;20170;-85
2021/09/28 07:07:02;;;;;;;448.13;422.00;;;12.90;1.00;;;;;;5024062;28;20234;-85
2021/09/28 07:09:28;;;;;;;455.27;429.10;;;12.90;1.00;;;;;;5042555;28;20432;-85
2021/09/28 07:11:53;;;;;;;471.10;444.37;;;13.00;1.00;;;;;;5023800;28;20415;-85
2021/09/28 07:14:22;;;;;;;534.30;503.67;;;13.00;1.00;;;;;;5040071;28;20819;-85
2021/09/28 07:16:47;;;;;;;537.20;506.80;;;13.10;99.90;;;;;;5041539;28;20208;-85
2021/09/28 07:19:13;;;;;;;527.73;498.13;;;13.10;99.90;;;;;;5021922;28;20419;-85
2021/09/28 07:21:42;;;;;;;511.83;482.97;;;13.20;1.00;;;;;;5041997;28;20162;-85
2021/09/28 07:24:10;;;;;;;509.60;480.70;;;13.20;1.00;;;;;;5042960;28;20161;-85
2021/09/28 07:26:36;;;;;;;496.27;467.63;;;13.20;99.90;;;;;;5024237;28;20427;-85
2021/09/28 07:29:01;;;;;;;463.50;436.80;;;13.30;99.90;;;;;;5043017;28;20396;-85
2021/09/28 07:31:27;;;;;;;460.37;433.87;;;13.30;1.00;;;;;;5023709;28;20165;-86
2021/09/28 07:33:53;;;;;;;415.33;391.23;;;13.20;1.00;;;;;;5023033;28;20245;-86
2021/09/28 07:36:19;;;;;;;454.37;428.83;;;13.30;1.00;;;;;;5040611;28;20161;-85
2021/09/28 07:38:47;;;;;;;453.03;425.83;;;13.30;1.00;;;;;;5021774;28;20196;-85
2021/09/28 07:41:13;;;;;;;433.13;407.87;;;13.30;1.00;;;;;;5042555;28;20192;-85
2021/09/28 07:43:39;;;;;;;502.77;474.30;;;13.30;99.90;;;;;;5020300;28;20427;-85
2021/09/28 07:46:05;;;;;;;482.20;454.30;;;13.40;65.80;;;;;;5042619;28;20169;-85
2021/09/28 07:48:31;;;;;;;473.10;445.00;;;13.40;1.00;;;;;;5022075;28;20939;-85
2021/09/28 07:50:59;;;;;;;433.57;409.27;;;13.50;1.00;;;;;;5040074;28;20450;-85
2021/09/28 07:53:25;;;;;;;419.73;395.63;;;13.40;1.00;;;;;;5040932;28;20404;-86
2021/09/28 07:55:54;;;;;;;375.07;353.17;;;13.50;45.90;;;;;;5041261;28;20451;-85
2021/09/28 07:58:20;;;;;;;362.80;341.77;;;13.50;99.90;;;;;;5005060;28;20470;-86
2021/09/28 08:00:45;;;;;;;389.93;366.50;;;13.50;1.00;;;;;;5039418;28;20440;-85
2021/09/28 08:03:12;;;;;;;408.37;384.63;;;13.60;99.90;;;;;;5039051;28;20175;-85
2021/09/28 08:05:38;;;;;;;440.67;415.43;;;13.60;58.50;;;;;;5022086;28;20165;-85
2021/09/28 08:08:04;;;;;;;494.57;465.83;;;13.60;1.00;;;;;;5021352;28;20436;-86
2021/09/28 08:10:30;;;;;;;510.47;480.67;;;13.80;1.00;;;;;;5021074;28;20408;-85
2021/09/28 08:12:59;;;;;;;488.93;460.23;;;13.80;99.90;;;;;;5038083;28;20403;-85
2021/09/28 08:15:28;;;;;;;532.47;501.53;;;13.80;99.90;;;;;;5020409;28;20474;-85
2021/09/28 08:17:53;;;;;;;472.40;443.83;;;13.80;99.90;;;;;;5039650;28;20416;-86
2021/09/28 08:20:21;;;;;;;456.60;429.90;;;13.90;99.90;;;;;;5041029;28;20474;-85
2021/09/28 08:22:47;;;;;;;417.27;393.20;;;13.80;1.00;;;;;;5021268;28;20169;-86
2021/09/28 08:25:16;;;;;;;422.67;398.10;;;13.80;99.90;;;;;;5036433;28;20396;-85
2021/09/28 08:30:27;;;;;;;425.67;401.17;;;13.90;1.00;;;;;;5037871;28;20483;-85
2021/09/28 08:32:54;;;;;;;452.80;426.57;;;13.90;1.00;;;;;;5037065;28;20427;-86
2021/09/28 08:35:20;;;;;;;437.70;412.50;;;13.90;1.00;;;;;;5036828;28;20499;-85
2021/09/28 08:37:46;;;;;;;470.17;441.97;;;14.00;1.00;;;;;;5036938;28;20454;-85
2021/09/28 08:40:16;;;;;;;496.73;468.20;;;14.20;1.00;;;;;;5036033;28;20864;-85
2021/09/28 08:42:42;;;;;;;479.50;451.50;;;14.20;99.90;;;;;;5036328;28;20454;-86
2021/09/28 08:47:46;;;;;;;464.63;435.23;;;14.40;99.90;;;;;;5267147;22;20251;-85
2021/09/28 08:50:20;;;;;;;447.83;420.47;;;14.40;99.90;;;;;;5054971;28;20149;-85
2021/09/28 08:52:48;;;;;;;476.27;448.20;;;14.50;99.90;;;;;;5054578;28;20399;-85
2021/09/28 08:55:14;;;;;;;461.03;433.07;;;14.60;99.90;;;;;;5053400;28;20402;-85
2021/09/28 08:57:43;;;;;;;455.37;428.30;;;14.60;99.90;;;;;;5053319;28;20423;-85
2021/09/28 09:00:25;;;;;;;446.37;420.23;;;14.70;73.90;;;;;;5036552;28;20447;-85
2021/09/28 09:02:52;;;;;;;443.67;418.00;;;14.70;99.90;;;;;;5055602;28;20763;-85
2021/09/28 09:05:18;;;;;;;358.63;335.50;;;14.80;1.00;;;;;;5037358;28;20404;-85
2021/09/28 09:07:57;;;;;;;295.00;274.90;;;14.90;1.00;;;;;;5055184;28;20422;-85
2021/09/28 09:10:29;;;;;;;291.47;270.33;;;15.00;99.90;;;;;;5056777;28;20734;-85
2021/09/28 09:12:55;;;;;;;244.80;226.90;;;15.00;1.00;;;;;;5036039;28;20415;-85
2021/09/28 09:15:33;;;;;;;218.23;201.00;;;15.10;1.00;;;;;;5056382;28;20546;-85
2021/09/28 09:18:08;;;;;;;195.77;179.87;;;15.20;1.00;;;;;;5058843;28;20462;-85
2021/09/28 09:20:42;;;;;;;182.57;168.07;;;15.30;1.00;;;;;;5040222;28;20505;-85
2021/09/28 09:23:16;;;;;;;199.57;184.27;;;15.50;99.90;;;;;;5058780;28;20871;-85
2021/09/28 09:25:43;;;;;;;177.40;162.93;;;15.40;99.90;;;;;;5057179;28;20402;-85
2021/09/28 09:28:33;;;;;;;180.77;166.33;;;15.50;99.90;;;;;;5057667;28;20431;-85
2021/09/28 09:31:33;;;;;;;207.83;192.40;;;15.70;99.90;;;;;;5057064;28;20450;-85
2021/09/28 09:34:16;;;;;;;249.17;231.93;;;15.70;99.90;;;;;;5038550;28;20412;-85
2021/09/28 09:36:43;;;;;;;217.93;202.47;;;15.80;99.90;;;;;;5057047;28;20510;-85
2021/09/28 09:39:10;;;;;;;216.30;200.50;;;15.80;99.90;;;;;;5039303;28;20959;-85
2021/09/28 09:41:43;;;;;;;237.77;221.20;;;15.90;99.90;;;;;;5039087;28;20417;-85
2021/09/28 09:44:11;;;;;;;249.33;232.60;;;16.00;99.90;;;;;;5056478;28;20377;-85
2021/09/28 09:46:43;;;;;;;220.50;204.60;;;15.90;9.70;;;;;;5056175;28;20417;-85
2021/09/28 09:49:11;;;;;;;214.77;198.80;;;16.00;99.90;;;;;;5038352;28;20414;-85
2021/09/28 09:51:48;;;;;;;226.80;210.60;;;16.00;69.70;;;;;;5056338;28;20826;-85
2021/09/28 09:54:15;;;;;;;221.13;205.33;;;16.20;95.30;;;;;;5039233;28;20400;-85
2021/09/28 09:56:47;;;;;;;233.97;216.77;;;16.30;99.90;;;;;;5038052;28;20426;-85
2021/09/28 09:59:14;;;;;;;213.77;198.10;;;16.40;95.40;;;;;;5038059;28;20409;-85
2021/09/28 10:01:40;;;;;;;246.33;229.53;;;16.40;38.50;;;;;;5038383;28;20897;-85
2021/09/28 10:04:07;;;;;;;235.43;219.43;;;16.50;24.30;;;;;;5037820;28;20412;-85
2021/09/28 10:06:33;;;;;;;219.37;203.70;;;16.60;28.90;;;;;;5038199;28;20202;-85
2021/09/28 10:08:59;;;;;;;260.33;242.83;;;16.50;1.00;;;;;;5037711;28;20861;-85
2021/09/28 10:11:29;;;;;;;250.23;233.33;;;16.50;1.00;;;;;;5056236;28;20170;-85
2021/09/28 10:13:57;;;;;;;244.57;228.23;;;16.40;1.00;;;;;;5038172;28;20422;-88
2021/09/28 10:31:55;;;;;;;288.07;271.00;;;16.80;1.00;;;;;;5203098;22;20482;-84
2021/09/28 10:34:21;;;;;;;281.30;264.20;;;16.80;1.00;;;;;;5055558;28;20403;-85
2021/09/28 10:36:52;;;;;;;313.57;295.03;;;16.90;1.00;;;;;;5055566;28;20555;-85
2021/09/28 10:39:37;;;;;;;250.80;234.37;;;17.00;1.00;;;;;;5055212;28;20165;-85
2021/09/28 10:42:03;;;;;;;259.67;242.23;;;16.90;1.00;;;;;;5037639;28;20423;-85
2021/09/28 10:44:29;;;;;;;296.13;278.20;;;16.90;1.00;;;;;;5037288;28;20453;-85
2021/09/28 10:47:04;;;;;;;323.60;304.20;;;17.10;1.00;;;;;;5055257;28;20419;-87
2021/09/28 10:49:33;;;;;;;339.23;319.27;;;17.20;1.00;;;;;;5038327;28;20264;-87
2021/09/28 10:52:25;;;;;;;307.97;289.00;;;17.30;1.00;;;;;;5055574;28;20814;-87
2021/09/28 10:55:08;;;;;;;278.47;259.97;;;17.40;1.00;;;;;;5037066;28;20415;-87
2021/09/28 11:05:30;;;;;;;256.23;238.80;;;17.30;1.00;;;;;;4614779;22;20498;-85
2021/09/28 11:07:57;;;;;;;142.27;129.27;;;17.30;1.00;;;;;;5053866;28;20431;-85
2021/09/28 11:10:22;;;;;;;128.63;115.97;;;17.40;1.00;;;;;;5054779;28;20402;-85
2021/09/28 11:12:48;;;;;;;150.67;137.03;;;17.50;1.00;;;;;;5054587;28;20399;-84
2021/09/28 11:15:28;;;;;;;220.97;204.67;;;17.40;1.00;;;;;;5036630;28;20176;-84
2021/09/28 11:17:54;;;;;;;167.43;153.40;;;17.40;1.00;;;;;;5036538;28;20223;-85
2021/09/28 11:20:22;;;;;;;293.87;274.97;;;17.40;1.00;;;;;;5054810;28;20540;-85
2021/09/28 11:23:12;;;;;;;199.33;183.47;;;17.50;1.00;;;;;;5036579;28;20165;-85
2021/09/28 11:25:43;;;;;;;191.47;176.57;;;17.50;1.00;;;;;;5054256;28;20394;-85
2021/09/28 11:28:12;;;;;;;150.63;137.30;;;17.70;1.00;;;;;;5036263;28;20430;-85
2021/09/28 11:30:53;;;;;;;136.50;123.73;;;17.70;1.00;;;;;;5054847;28;21029;-85
2021/09/28 11:33:28;;;;;;;89.53;64.80;;;17.90;1.00;;;;;;5054349;28;20959;-85
2021/09/28 11:35:57;;;;;;;89.43;60.63;;;18.20;1.00;;;;;;5036449;28;20410;-85
2021/09/28 11:38:29;;;;;;;77.70;34.50;;;18.30;1.00;;;;;;5053334;28;20768;-85
2021/09/28 11:41:00;;;;;;;78.27;29.57;;;18.20;1.00;;;;;;5035770;28;20442;-85
2021/09/28 11:43:30;;;;;;;95.40;77.93;;;18.30;1.00;;;;;;5036139;28;20411;-85
2021/09/28 11:46:00;;;;;;;86.53;65.80;;;18.30;1.00;;;;;;5053738;28;20399;-85
2021/09/28 11:48:28;;;;;;;157.33;144.57;;;18.60;1.00;;;;;;5053907;28;20486;-86
2021/09/28 11:51:11;;;;;;;160.67;147.53;;;18.80;1.00;;;;;;5054109;28;20429;-87
2021/09/28 11:53:47;;;;;;;100.20;84.33;;;19.30;1.00;;;;;;5037867;28;20422;-87
2021/09/28 12:09:16;;;;;;;133.60;121.27;;;19.80;1.00;;;;;;4953688;26;20831;-87
2021/09/28 12:11:58;;;;;;;151.73;138.87;;;20.10;1.00;;;;;;5034099;28;20408;-85
2021/09/28 12:14:51;;;;;;;159.47;145.70;;;19.80;1.00;;;;;;5033470;28;20527;-85
2021/09/28 12:17:35;;;;;;;127.20;114.73;;;19.60;1.00;;;;;;5014609;28;20785;-85
2021/09/28 12:20:07;;;;;;;158.83;145.73;;;19.60;1.00;;;;;;5015722;28;20448;-85
2021/09/28 12:22:37;;;;;;;116.87;105.43;;;19.90;1.00;;;;;;5033311;28;20412;-85
2021/09/28 12:25:09;;;;;;;181.07;167.30;;;19.80;1.00;;;;;;5015650;28;20405;-85
2021/09/28 12:27:36;;;;;;;129.20;117.10;;;19.90;1.00;;;;;;5033308;28;20420;-85
2021/09/28 12:30:08;;;;;;;193.23;178.03;;;20.10;1.00;;;;;;5033529;28;20419;-85
2021/09/28 12:32:34;;;;;;;124.33;112.83;;;19.90;1.00;;;;;;5033509;28;20398;-85
2021/09/28 12:35:13;;;;;;;168.27;154.93;;;19.60;1.00;;;;;;5033241;28;20407;-85
2021/09/28 12:37:47;;;;;;;184.87;170.80;;;19.70;1.00;;;;;;5033000;28;20514;-85
2021/09/28 12:40:15;;;;;;;178.83;165.33;;;19.60;1.00;;;;;;5015372;28;20785;-85
2021/09/28 12:42:43;;;;;;;145.77;133.27;;;19.60;1.00;;;;;;5033110;28;20409;-85
2021/09/28 12:45:16;;;;;;;198.53;184.40;;;19.50;1.00;;;;;;5033324;28;20392;-85
2021/09/28 12:47:44;;;;;;;194.27;179.93;;;19.80;1.00;;;;;;5016429;28;20470;-85
2021/09/28 12:50:22;;;;;;;156.97;143.93;;;19.60;99.90;;;;;;5037286;28;20413;-85
2021/09/28 12:52:50;;;;;;;287.07;268.37;;;19.60;99.90;;;;;;5037260;28;20395;-85
2021/09/28 12:55:16;;;;;;;282.83;264.57;;;19.70;99.90;;;;;;5140106;22;20486;-83
2021/09/28 12:57:44;;;;;;;298.60;279.60;;;19.80;99.90;;;;;;5042741;28;21000;-83
2021/09/28 13:00:11;;;;;;;246.67;230.30;;;19.70;99.90;;;;;;5043343;28;20452;-83
2021/09/28 13:02:38;;;;;;;198.50;183.17;;;19.70;99.90;;;;;;5060445;28;20400;-83
2021/09/28 13:05:08;;;;;;;155.37;142.07;;;19.60;99.90;;;;;;5060911;28;20821;-83
2021/09/28 13:07:40;;;;;;;164.63;150.77;;;19.50;99.90;;;;;;5026228;28;20815;-82
2021/09/28 13:10:07;;;;;;;173.03;158.50;;;19.50;99.90;;;;;;5042397;28;20920;-83
2021/09/28 13:12:33;;;;;;;159.17;146.00;;;19.40;99.90;;;;;;5041879;28;20412;-83
2021/09/28 13:14:59;;;;;;;171.13;157.27;;;19.40;99.90;;;;;;5042884;28;20416;-83
2021/09/28 13:17:25;;;;;;;169.20;155.30;;;19.20;99.90;;;;;;5059782;28;20422;-83
2021/09/28 13:19:51;;;;;;;148.37;135.60;;;19.10;99.90;;;;;;5060529;28;20252;-82
2021/09/28 13:22:16;;;;;;;257.77;240.70;;;19.00;99.90;;;;;;5042548;28;20205;-83
2021/09/28 13:24:42;;;;;;;171.93;158.03;;;19.00;99.90;;;;;;5059899;28;20582;-82